Time;durP1;ratioP1;P1;durP2;ratioP2;P2;SDS_P1;SDS_P2;PMS_P1;PMS_P2;Temp;Humidity;BMP_temperature;BMP_pressure;BME280_temperature;BME280_humidity;BME280_pressure;Samples;Min_cycle;Max_cycle;Signal;HPM_P1;HPM_P2
2022/08/29 00:01:24;;;;;;;0.40;0.40;;;19.60;77.70;;;19.72;63.76;95177.72;4995368;28;20227;-79
2022/08/29 00:03:56;;;;;;;0.50;0.50;;;19.60;77.80;;;19.68;64.00;95170.22;5026934;28;20296;-81
2022/08/29 00:06:24;;;;;;;0.40;0.40;;;19.60;78.00;;;19.65;64.13;95165.41;5009305;28;20291;-80
2022/08/29 00:08:51;;;;;;;0.40;0.40;;;19.50;77.80;;;19.62;63.66;95168.53;5004062;28;20315;-81
2022/08/29 00:11:20;;;;;;;0.50;0.50;;;19.50;77.80;;;19.62;64.16;95175.72;5014825;28;20223;-80
2022/08/29 00:13:48;;;;;;;0.50;0.50;;;19.50;77.80;;;19.59;63.83;95174.34;5023333;28;20200;-79
2022/08/29 00:16:15;;;;;;;0.50;0.50;;;19.40;77.80;;;19.57;63.97;95167.66;5033837;28;20298;-80
2022/08/29 00:18:42;;;;;;;0.50;0.50;;;19.40;77.90;;;19.54;63.93;95176.91;5028482;28;20663;-80
2022/08/29 00:21:09;;;;;;;0.50;0.50;;;19.40;77.90;;;19.49;64.00;95169.69;5029006;28;20330;-80
2022/08/29 00:23:36;;;;;;;0.50;0.50;;;19.40;77.90;;;19.44;63.98;95171.44;5013777;28;20204;-80
2022/08/29 00:26:03;;;;;;;0.50;0.50;;;19.30;77.90;;;19.41;63.99;95177.22;5019012;28;20257;-80
2022/08/29 00:28:31;;;;;;;0.50;0.50;;;19.30;77.90;;;19.38;64.13;95177.72;5017916;28;20224;-80
2022/08/29 00:30:58;;;;;;;0.50;0.50;;;19.20;77.80;;;19.33;63.69;95173.13;5018004;28;20234;-80
2022/08/29 00:33:25;;;;;;;0.50;0.50;;;19.20;77.90;;;19.29;63.77;95177.31;5021633;28;20643;-81
2022/08/29 00:35:53;;;;;;;0.50;0.50;;;19.10;77.90;;;19.24;64.13;95175.38;5014626;28;20251;-79
2022/08/29 00:38:22;;;;;;;0.50;0.50;;;19.10;78.00;;;19.14;63.99;95168.03;5003265;28;20299;-80
2022/08/29 00:40:56;;;;;;;0.50;0.50;;;19.10;78.20;;;19.16;64.67;95184.56;5010032;28;20262;-80
2022/08/29 00:43:28;;;;;;;0.50;0.50;;;19.00;78.20;;;19.12;64.21;95180.75;5017721;28;20208;-80
2022/08/29 00:46:40;;;;;;;0.50;0.50;;;19.00;78.50;;;19.06;64.72;95186.22;5013855;28;20207;-80
2022/08/29 00:49:13;;;;;;;0.50;0.50;;;19.00;78.60;;;19.04;65.30;95183.78;5033964;28;20228;-80
2022/08/29 00:51:40;;;;;;;0.52;0.52;;;19.00;78.80;;;19.04;64.58;95194.41;5034164;28;20270;-79
2022/08/29 00:54:10;;;;;;;0.50;0.50;;;18.90;78.60;;;19.04;65.35;95186.44;5003127;28;20280;-80
2022/08/29 00:56:40;;;;;;;0.50;0.50;;;18.90;78.90;;;19.05;65.11;95188.06;5016677;28;20695;-79
2022/08/29 00:59:17;;;;;;;0.50;0.50;;;18.90;79.00;;;19.08;65.48;95187.59;5001787;28;20204;-80
2022/08/29 01:01:45;;;;;;;0.40;0.40;;;18.90;79.50;;;19.09;65.61;95180.41;5014074;28;20219;-80
2022/08/29 01:04:13;;;;;;;0.40;0.40;;;18.90;79.60;;;19.11;65.84;95180.97;5017487;28;20200;-79
2022/08/29 01:06:51;;;;;;;0.43;0.43;;;18.90;79.40;;;19.13;65.57;95178.91;5014519;28;20259;-79
2022/08/29 01:09:19;;;;;;;0.52;0.52;;;18.90;79.50;;;19.16;65.80;95176.56;5014692;28;20226;-80
2022/08/29 01:14:34;;;;;;;0.40;0.40;;;19.00;79.60;;;19.19;65.89;95178.75;5031870;28;20222;-78
2022/08/29 01:17:08;;;;;;;0.43;0.43;;;19.00;79.60;;;19.22;65.44;95177.44;5013782;28;20270;-80
2022/08/29 01:19:52;;;;;;;0.47;0.47;;;19.00;79.70;;;19.25;65.64;95176.16;5023435;28;20659;-80
2022/08/29 01:23:02;;;;;;;0.40;0.40;;;19.10;79.90;;;19.22;65.48;95179.31;5006271;28;20228;-79
2022/08/29 01:25:36;;;;;;;0.50;0.50;;;19.10;80.10;;;19.27;66.05;95182.06;5013831;28;20211;-79
2022/08/29 01:28:12;;;;;;;0.50;0.50;;;19.10;79.80;;;19.30;65.88;95182.38;5022953;28;20228;-80
2022/08/29 01:31:05;;;;;;;0.50;0.50;;;19.10;79.70;;;19.30;66.04;95174.41;5008813;28;20577;-80
2022/08/29 01:33:41;;;;;;;0.50;0.50;;;19.20;80.00;;;19.34;65.44;95185.38;5033621;28;20184;-80
2022/08/29 01:36:14;;;;;;;0.50;0.50;;;19.20;79.80;;;19.37;65.67;95179.56;5029689;28;20220;-80
2022/08/29 01:38:42;;;;;;;0.47;0.47;;;19.20;79.70;;;19.39;65.32;95182.78;5013330;28;20192;-79
2022/08/29 01:41:10;;;;;;;0.50;0.50;;;19.20;79.60;;;19.39;65.53;95174.00;4996606;28;20220;-80
2022/08/29 01:43:44;;;;;;;0.40;0.40;;;19.20;79.60;;;19.41;65.44;95186.03;5013187;28;20196;-80
2022/08/29 01:46:19;;;;;;;0.50;0.50;;;19.20;79.70;;;19.38;65.70;95186.50;4998047;28;20223;-79
2022/08/29 01:48:46;;;;;;;0.50;0.50;;;19.20;79.50;;;19.38;65.52;95180.38;5005492;28;20232;-80
2022/08/29 01:51:14;;;;;;;0.50;0.50;;;19.20;79.30;;;19.37;65.12;95182.22;5016067;28;20605;-80
2022/08/29 01:53:42;;;;;;;0.43;0.43;;;19.20;79.30;;;19.35;65.07;95182.47;5049294;28;20212;-80
2022/08/29 01:56:21;;;;;;;0.50;0.50;;;19.20;79.30;;;19.32;65.24;95177.63;5006539;28;20219;-78
2022/08/29 01:58:51;;;;;;;0.40;0.40;;;19.10;79.50;;;19.24;64.84;95178.03;5008059;28;20266;-79
2022/08/29 02:01:24;;;;;;;0.50;0.50;;;19.10;79.40;;;19.28;64.75;95173.03;5014753;28;20314;-79
2022/08/29 02:03:51;;;;;;;0.47;0.47;;;19.10;79.40;;;19.26;65.53;95177.78;5013039;28;20219;-79
2022/08/29 02:06:20;;;;;;;0.50;0.50;;;19.10;79.40;;;19.25;65.36;95176.97;5012076;28;20698;-79
2022/08/29 02:08:47;;;;;;;0.50;0.50;;;19.00;79.40;;;19.25;65.01;95176.16;4998260;28;20220;-78
2022/08/29 02:11:16;;;;;;;0.40;0.40;;;19.00;79.40;;;19.24;65.33;95178.03;5012680;28;20240;-80
2022/08/29 02:13:55;;;;;;;0.50;0.50;;;19.00;80.30;;;19.24;64.93;95179.88;5011024;28;20589;-80
2022/08/29 02:16:25;;;;;;;0.50;0.50;;;19.00;79.90;;;19.23;65.07;95176.41;5032503;28;20218;-80
2022/08/29 02:18:53;;;;;;;0.70;0.70;;;19.00;79.60;;;19.22;65.05;95182.78;5004330;28;20205;-79
2022/08/29 02:21:24;;;;;;;0.50;0.50;;;19.00;79.60;;;19.22;65.14;95181.97;4995067;28;20725;-79
2022/08/29 02:23:54;;;;;;;0.50;0.50;;;19.00;79.70;;;19.22;65.43;95181.97;4996316;28;20235;-79
2022/08/29 02:26:22;;;;;;;0.50;0.50;;;19.00;79.60;;;19.20;65.44;95182.22;5017056;28;20216;-79
2022/08/29 02:28:50;;;;;;;0.50;0.50;;;19.00;79.70;;;19.18;65.68;95190.41;5029486;28;20223;-79
2022/08/29 02:31:20;;;;;;;0.40;0.40;;;19.00;79.70;;;19.17;65.85;95183.47;5025754;28;20213;-79
2022/08/29 02:33:48;;;;;;;0.50;0.50;;;19.00;79.80;;;19.17;65.25;95194.13;4996086;28;20239;-80
2022/08/29 02:36:16;;;;;;;0.43;0.43;;;19.00;79.70;;;19.19;65.16;95185.91;4996004;28;20713;-80
2022/08/29 02:38:45;;;;;;;0.40;0.40;;;19.00;79.70;;;19.17;65.60;95185.34;5011467;28;20271;-80
2022/08/29 02:41:13;;;;;;;0.50;0.50;;;19.00;79.70;;;19.18;65.45;95195.72;5015619;28;20568;-80
2022/08/29 02:43:41;;;;;;;0.50;0.50;;;19.00;79.60;;;19.10;65.29;95190.78;5015471;28;20622;-80
2022/08/29 02:46:15;;;;;;;0.50;0.50;;;19.00;79.60;;;19.09;65.14;95194.53;5015435;28;20215;-79
2022/08/29 02:48:44;;;;;;;0.57;0.57;;;19.00;79.70;;;19.08;65.68;95195.56;5002706;28;20335;-80
2022/08/29 02:51:30;;;;;;;0.40;0.40;;;18.90;79.50;;;19.00;65.28;95195.94;5011398;28;20714;-79
2022/08/29 02:53:59;;;;;;;0.50;0.50;;;18.90;79.50;;;18.98;65.17;95190.88;5016467;28;20271;-80
2022/08/29 02:56:27;;;;;;;0.50;0.50;;;18.90;79.50;;;18.93;66.00;95195.28;5015715;28;20228;-81
2022/08/29 02:58:55;;;;;;;0.50;0.50;;;18.80;79.40;;;18.86;65.82;95188.22;4978510;28;20216;-80
2022/08/29 03:01:23;;;;;;;0.50;0.50;;;18.80;79.40;;;18.82;65.50;95187.09;4995485;28;20591;-79
2022/08/29 03:03:51;;;;;;;0.50;0.50;;;18.70;79.40;;;18.78;65.48;95191.25;5010856;28;20200;-80
2022/08/29 03:06:20;;;;;;;0.60;0.60;;;18.70;79.40;;;18.71;65.51;95188.75;4978545;28;20217;-80
2022/08/29 03:08:47;;;;;;;0.50;0.50;;;18.70;79.50;;;18.66;65.76;95196.63;4995379;28;20686;-80
2022/08/29 03:11:16;;;;;;;0.70;0.70;;;18.60;79.40;;;18.63;66.06;95201.59;5010489;28;20698;-80
2022/08/29 03:13:44;;;;;;;0.52;0.52;;;18.60;79.60;;;18.56;66.13;95191.88;5006288;28;20244;-79
2022/08/29 03:16:12;;;;;;;0.50;0.50;;;18.50;79.70;;;18.53;65.68;95197.69;5010752;28;20689;-80
2022/08/29 03:18:40;;;;;;;0.50;0.50;;;18.40;79.60;;;18.50;65.77;95195.47;5010352;28;20285;-80
2022/08/29 03:21:16;;;;;;;0.55;0.55;;;18.40;79.70;;;18.42;65.68;95198.53;5014871;28;20247;-80
2022/08/29 03:23:44;;;;;;;0.55;0.55;;;18.40;80.00;;;18.42;65.55;95203.84;5026958;28;20255;-80
2022/08/29 03:26:11;;;;;;;0.50;0.50;;;18.30;79.70;;;18.37;65.77;95201.88;5013265;28;20228;-79
2022/08/29 03:28:39;;;;;;;0.60;0.60;;;18.20;79.70;;;18.33;65.49;95199.91;5011522;28;20274;-80
2022/08/29 03:31:07;;;;;;;0.60;0.60;;;18.20;79.80;;;18.29;65.83;95202.22;5025014;28;20307;-79
2022/08/29 03:33:35;;;;;;;0.52;0.52;;;18.20;79.70;;;18.24;65.83;95197.59;5005482;28;20658;-79
2022/08/29 03:36:04;;;;;;;0.50;0.50;;;18.10;79.80;;;18.21;66.04;95200.75;5007429;28;20216;-80
2022/08/29 03:38:39;;;;;;;0.60;0.60;;;18.10;79.70;;;18.16;65.93;95205.94;5023362;28;20204;-79
2022/08/29 03:41:07;;;;;;;0.55;0.55;;;18.10;79.90;;;18.10;66.14;95201.53;5008522;28;20224;-80
2022/08/29 03:43:35;;;;;;;0.60;0.60;;;18.00;80.10;;;18.08;66.40;95203.63;5010163;28;20196;-79
2022/08/29 03:46:02;;;;;;;0.63;0.63;;;17.90;80.20;;;18.03;66.53;95196.38;5019723;28;20227;-79
2022/08/29 03:48:29;;;;;;;0.63;0.63;;;17.90;80.20;;;17.99;66.41;95197.88;5004658;28;20581;-80
2022/08/29 03:50:57;;;;;;;0.50;0.50;;;17.90;80.20;;;17.96;66.68;95189.56;5033715;28;20188;-80
2022/08/29 03:53:24;;;;;;;0.50;0.50;;;17.90;80.20;;;17.92;67.19;95191.84;4981767;28;20250;-79
2022/08/29 03:55:53;;;;;;;0.50;0.50;;;17.90;80.20;;;17.91;66.94;95198.19;5018571;28;20204;-80
2022/08/29 03:58:20;;;;;;;0.57;0.57;;;17.80;80.10;;;17.87;67.10;95203.16;5030035;28;20255;-80
2022/08/29 04:00:47;;;;;;;0.50;0.50;;;17.80;80.10;;;17.87;67.28;95202.31;5000318;28;20652;-81
2022/08/29 04:03:14;;;;;;;0.52;0.52;;;17.80;80.20;;;17.86;66.92;95198.06;4996695;28;20204;-82
2022/08/29 04:05:41;;;;;;;0.60;0.60;;;17.80;80.10;;;17.85;66.53;95205.22;5009239;28;20311;-81
2022/08/29 04:08:09;;;;;;;0.60;0.60;;;17.70;80.10;;;17.83;66.58;95206.47;5012292;28;20667;-81
2022/08/29 04:10:38;;;;;;;0.70;0.70;;;17.70;80.10;;;17.82;66.68;95212.81;5012620;28;20203;-80
2022/08/29 04:13:07;;;;;;;0.60;0.60;;;17.70;80.10;;;17.80;66.29;95217.53;5011852;28;20623;-81
2022/08/29 04:15:37;;;;;;;0.60;0.60;;;17.60;80.00;;;17.76;66.23;95217.22;5010917;28;20188;-80
2022/08/29 04:18:07;;;;;;;0.50;0.50;;;17.60;80.00;;;17.74;66.64;95214.78;5004839;28;20568;-81
2022/08/29 04:20:40;;;;;;;0.50;0.50;;;17.60;80.10;;;17.74;66.57;95216.63;5028805;28;20655;-81
2022/08/29 04:23:09;;;;;;;0.50;0.50;;;17.60;80.50;;;17.72;66.11;95219.53;4996370;28;20258;-81
2022/08/29 04:25:36;;;;;;;0.50;0.50;;;17.50;80.30;;;17.72;66.75;95218.69;5023077;28;20204;-81
2022/08/29 04:28:06;;;;;;;0.50;0.50;;;17.50;80.20;;;17.71;66.32;95220.56;5014635;28;20231;-81
2022/08/29 04:30:35;;;;;;;0.60;0.60;;;17.50;80.40;;;17.71;66.78;95222.38;5027595;28;20200;-79
2022/08/29 04:33:03;;;;;;;0.60;0.60;;;17.50;80.50;;;17.70;66.68;95228.72;5014231;28;20224;-81
2022/08/29 04:35:30;;;;;;;0.70;0.70;;;17.50;80.50;;;17.68;66.98;95233.47;5010290;28;20263;-80
2022/08/29 04:37:58;;;;;;;0.60;0.60;;;17.50;80.50;;;17.68;67.33;95241.44;4993816;28;20312;-80
2022/08/29 04:40:25;;;;;;;0.50;0.50;;;17.50;80.60;;;17.66;67.05;95243.50;4989415;28;20209;-80
2022/08/29 04:42:52;;;;;;;0.50;0.50;;;17.50;80.60;;;17.67;67.55;95243.25;4994540;28;20225;-80
2022/08/29 04:45:22;;;;;;;0.50;0.50;;;17.50;80.70;;;17.66;67.54;95244.28;5010875;28;20197;-81
2022/08/29 04:47:50;;;;;;;0.60;0.60;;;17.50;81.00;;;17.68;67.95;95250.19;4994528;28;20217;-80
2022/08/29 04:50:21;;;;;;;0.50;0.50;;;17.60;81.00;;;17.68;67.96;95242.22;5017533;28;20227;-81
2022/08/29 04:52:54;;;;;;;0.60;0.60;;;17.60;81.20;;;17.70;67.85;95248.13;5015085;28;20219;-80
2022/08/29 04:55:23;;;;;;;0.55;0.55;;;17.60;81.10;;;17.73;67.86;95258.25;5010218;28;20304;-81
2022/08/29 04:57:55;;;;;;;0.60;0.60;;;17.60;81.10;;;17.74;67.59;95251.91;4998072;28;20719;-80
2022/08/29 05:00:26;;;;;;;0.60;0.60;;;17.60;81.20;;;17.75;67.40;95256.19;5014134;28;20272;-81
2022/08/29 05:02:54;;;;;;;0.60;0.60;;;17.60;81.30;;;17.79;67.99;95255.75;5014216;28;20263;-81
2022/08/29 05:05:21;;;;;;;0.55;0.55;;;17.60;81.20;;;17.79;68.31;95251.25;4998194;28;20200;-81
2022/08/29 05:07:49;;;;;;;0.60;0.60;;;17.70;81.20;;;17.85;67.45;95260.16;5012865;28;20231;-79
2022/08/29 05:10:18;;;;;;;0.60;0.60;;;17.70;81.30;;;17.88;67.44;95260.50;4997701;28;20212;-81
2022/08/29 05:12:47;;;;;;;0.52;0.52;;;17.70;81.40;;;17.88;67.97;95257.84;5012644;28;20247;-80
2022/08/29 05:15:15;;;;;;;0.50;0.50;;;17.80;81.30;;;17.91;67.97;95264.53;4997700;28;20204;-80
2022/08/29 05:17:43;;;;;;;0.60;0.60;;;17.80;81.50;;;17.94;67.69;95264.06;5026570;28;20221;-80
2022/08/29 05:20:12;;;;;;;0.50;0.50;;;17.80;81.40;;;17.99;68.18;95274.03;5013771;28;20673;-80
2022/08/29 05:22:41;;;;;;;0.65;0.65;;;17.80;81.50;;;18.02;67.92;95268.28;5014889;28;20315;-79
2022/08/29 05:25:11;;;;;;;0.50;0.50;;;17.90;81.50;;;18.06;68.06;95272.06;5011446;28;20291;-81
2022/08/29 05:27:45;;;;;;;0.50;0.50;;;17.90;81.50;;;18.10;67.93;95275.06;5014587;28;20637;-80
2022/08/29 05:30:13;;;;;;;0.60;0.60;;;18.00;81.60;;;18.13;68.04;95272.75;5005517;28;20628;-80
2022/08/29 05:32:40;;;;;;;0.50;0.50;;;18.00;81.50;;;18.18;68.18;95269.44;5004617;28;20697;-80
2022/08/29 05:35:08;;;;;;;0.50;0.50;;;18.10;81.60;;;18.23;67.88;95272.19;5033136;28;20192;-80
2022/08/29 05:37:35;;;;;;;0.60;0.60;;;18.10;81.40;;;18.25;67.86;95280.75;5017412;28;20216;-80
2022/08/29 05:40:03;;;;;;;0.60;0.60;;;18.10;81.40;;;18.28;67.91;95284.78;5004586;28;20200;-79
2022/08/29 05:42:31;;;;;;;0.50;0.50;;;18.20;81.50;;;18.30;68.33;95275.53;5016481;28;20655;-80
2022/08/29 05:44:58;;;;;;;0.50;0.50;;;18.20;81.40;;;18.33;68.07;95277.72;5032921;28;20204;-80
2022/08/29 05:47:25;;;;;;;0.50;0.50;;;18.20;81.40;;;18.36;68.04;95279.91;5014071;28;20238;-80
2022/08/29 05:49:52;;;;;;;0.50;0.50;;;18.20;81.30;;;18.37;67.87;95283.38;4999050;28;20224;-80
2022/08/29 05:52:20;;;;;;;0.50;0.50;;;18.30;81.30;;;18.39;67.76;95276.00;5049322;28;20282;-80
2022/08/29 05:54:47;;;;;;;0.50;0.50;;;18.30;81.30;;;18.43;67.95;95284.31;5012129;28;20203;-81
2022/08/29 05:57:18;;;;;;;0.50;0.50;;;18.40;81.30;;;18.45;67.90;95285.69;4980561;28;20248;-80
2022/08/29 05:59:48;;;;;;;0.50;0.50;;;18.40;81.40;;;18.50;68.20;95287.66;5007383;28;20227;-81
2022/08/29 06:02:16;;;;;;;0.50;0.50;;;18.40;81.40;;;18.56;68.12;95281.41;4995899;28;20229;-81
2022/08/29 06:04:43;;;;;;;0.50;0.50;;;18.50;81.80;;;18.64;68.80;95288.19;5011039;28;20201;-80
2022/08/29 06:07:11;;;;;;;0.50;0.50;;;18.60;82.00;;;18.76;68.31;95285.53;4999003;28;21422;-80
2022/08/29 06:09:40;;;;;;;0.50;0.50;;;18.60;82.20;;;18.86;68.64;95289.22;5032691;28;20323;-80
2022/08/29 06:12:09;;;;;;;0.40;0.40;;;18.80;82.10;;;18.97;67.91;95287.59;5012983;28;20224;-80
2022/08/29 06:14:36;;;;;;;0.40;0.40;;;18.80;82.00;;;19.10;68.31;95291.03;5014039;28;20266;-79
2022/08/29 06:17:05;;;;;;;0.47;0.47;;;19.00;82.00;;;19.21;68.25;95292.84;5032704;28;20222;-80
2022/08/29 06:19:35;;;;;;;0.40;0.40;;;19.00;82.00;;;19.35;68.21;95291.50;5007374;28;20204;-80
2022/08/29 06:22:04;;;;;;;0.50;0.50;;;19.20;82.10;;;19.50;67.96;95293.63;5006633;28;20232;-79
2022/08/29 06:24:38;;;;;;;0.50;0.50;;;19.30;82.10;;;19.64;68.22;95291.50;4997004;28;20188;-80
2022/08/29 06:27:06;;;;;;;0.40;0.40;;;19.40;82.00;;;19.77;68.14;95286.91;4980752;28;20221;-80
2022/08/29 06:29:33;;;;;;;0.40;0.40;;;19.60;81.90;;;19.92;67.82;95286.38;5026748;28;20363;-80
2022/08/29 06:32:09;;;;;;;0.50;0.50;;;19.70;81.70;;;20.04;67.64;95300.44;5012373;28;20252;-80
2022/08/29 06:34:36;;;;;;;0.50;0.50;;;19.90;81.70;;;20.13;67.18;95295.53;5012407;28;20572;-79
2022/08/29 06:37:03;;;;;;;0.50;0.50;;;20.00;81.70;;;20.26;67.10;95294.38;5011787;28;20635;-80
2022/08/29 06:39:30;;;;;;;0.40;0.40;;;20.10;81.40;;;20.39;66.45;95301.25;5025413;28;20206;-80
2022/08/29 06:41:58;;;;;;;0.47;0.47;;;20.20;81.10;;;20.47;66.82;95293.63;5015460;28;20232;-80
2022/08/29 06:44:25;;;;;;;0.40;0.40;;;20.30;80.90;;;20.61;66.32;95293.28;5032134;28;20211;-81
2022/08/29 06:46:57;;;;;;;0.40;0.40;;;20.40;80.70;;;20.72;66.77;95303.06;5015179;28;20228;-80
2022/08/29 06:49:25;;;;;;;0.50;0.50;;;20.60;80.70;;;20.84;66.42;95307.50;5005225;28;20223;-81
2022/08/29 06:51:53;;;;;;;0.40;0.40;;;20.70;80.50;;;20.93;66.11;95311.31;5031921;28;20224;-81
2022/08/29 06:54:26;;;;;;;0.40;0.40;;;20.80;80.20;;;21.07;65.86;95312.56;5030841;28;20215;-81
2022/08/29 06:56:56;;;;;;;0.40;0.40;;;20.90;79.90;;;21.19;65.77;95307.13;5006176;28;20280;-81
2022/08/29 06:59:24;;;;;;;0.40;0.40;;;21.00;79.80;;;21.28;65.64;95300.25;4995660;28;20281;-81
2022/08/29 07:01:51;;;;;;;0.40;0.40;;;21.20;79.80;;;21.39;65.29;95306.53;5027185;28;20230;-81
2022/08/29 07:04:18;;;;;;;0.43;0.43;;;21.30;79.40;;;21.52;64.84;95304.50;5027529;28;20193;-81
2022/08/29 07:06:48;;;;;;;0.40;0.40;;;21.40;79.50;;;21.64;65.07;95305.22;5012094;28;20349;-81
2022/08/29 07:09:15;;;;;;;0.43;0.43;;;21.50;79.10;;;21.76;64.71;95302.38;4985283;28;20234;-81
2022/08/29 07:11:42;;;;;;;0.43;0.43;;;21.60;79.00;;;21.91;64.50;95307.06;5015163;28;20217;-80
2022/08/29 07:14:10;;;;;;;0.40;0.40;;;21.80;78.90;;;22.03;64.10;95305.03;5031423;28;20293;-80
2022/08/29 07:16:39;;;;;;;0.52;0.52;;;21.90;78.50;;;22.15;63.99;95299.50;5016086;28;20234;-81
2022/08/29 07:19:08;;;;;;;0.30;0.30;;;22.00;78.10;;;22.25;63.64;95304.13;5012618;28;20205;-80
2022/08/29 07:21:37;;;;;;;0.50;0.50;;;22.20;77.80;;;22.36;63.47;95305.00;5010566;28;20259;-79
2022/08/29 07:24:05;;;;;;;0.43;0.43;;;22.30;77.70;;;22.47;63.12;95311.25;5012148;28;20211;-81
2022/08/29 07:26:37;;;;;;;0.50;0.50;;;22.40;77.30;;;22.56;62.57;95309.72;5013374;28;20311;-80
2022/08/29 07:29:14;;;;;;;0.40;0.40;;;22.50;76.70;;;22.65;62.37;95304.69;5020021;28;20220;-81
2022/08/29 07:31:41;;;;;;;0.40;0.40;;;22.60;76.40;;;22.74;61.91;95303.16;5005268;28;20616;-81
2022/08/29 07:34:09;;;;;;;0.40;0.40;;;22.70;76.30;;;22.83;61.82;95308.78;5017528;28;20209;-81
2022/08/29 07:36:37;;;;;;;0.40;0.40;;;22.80;76.60;;;22.95;61.96;95301.38;4996006;28;20262;-78
2022/08/29 07:39:11;;;;;;;0.40;0.40;;;22.90;76.60;;;23.09;61.65;95307.03;5005621;28;20201;-81
2022/08/29 07:41:40;;;;;;;0.60;0.60;;;23.00;76.30;;;23.18;60.96;95304.72;5005415;28;20310;-80
2022/08/29 07:44:08;;;;;;;0.40;0.40;;;23.10;75.60;;;23.27;60.79;95310.34;5009379;28;20200;-80
2022/08/29 07:46:36;;;;;;;0.50;0.50;;;23.20;75.40;;;23.35;61.06;95304.47;4993994;28;20216;-81
2022/08/29 07:49:04;;;;;;;0.40;0.40;;;23.30;75.60;;;23.44;60.96;95302.91;5012649;28;20235;-80
2022/08/29 07:51:31;;;;;;;0.40;0.40;;;23.40;75.80;;;23.56;60.77;95301.84;5013648;28;20231;-81
2022/08/29 07:53:59;;;;;;;0.43;0.43;;;23.40;75.20;;;23.65;60.34;95298.38;4980211;28;20208;-80
2022/08/29 07:56:32;;;;;;;0.40;0.40;;;23.60;75.10;;;23.79;60.11;95303.22;4993349;28;20216;-80
2022/08/29 07:59:05;;;;;;;0.40;0.40;;;23.70;74.60;;;23.89;59.52;95297.91;5009282;28;20221;-81
2022/08/29 08:01:34;;;;;;;0.40;0.40;;;23.80;75.50;;;24.04;59.39;95299.81;4997173;28;20690;-81
2022/08/29 08:04:02;;;;;;;0.30;0.30;;;23.90;74.40;;;24.15;59.56;95295.25;4991501;28;20273;-82
2022/08/29 08:06:29;;;;;;;0.60;0.60;;;24.10;74.40;;;24.27;59.23;95298.47;5023563;28;20216;-80
2022/08/29 08:08:56;;;;;;;0.40;0.40;;;24.20;73.90;;;24.29;58.34;95290.97;5030697;28;20659;-81
2022/08/29 08:11:25;;;;;;;0.40;0.40;;;24.30;73.30;;;24.39;57.92;95300.03;5009623;28;20229;-80
2022/08/29 08:13:54;;;;;;;0.40;0.40;;;24.40;72.90;;;24.41;58.01;95304.09;5010903;28;20213;-81
2022/08/29 08:16:24;;;;;;;0.40;0.40;;;24.50;72.80;;;24.43;57.56;95303.81;4984231;28;20245;-80
2022/08/29 08:18:54;;;;;;;0.40;0.40;;;24.50;72.50;;;24.46;57.66;95304.06;5014208;28;20291;-81
2022/08/29 08:21:23;;;;;;;0.40;0.40;;;24.50;72.60;;;24.50;57.50;95300.84;5011382;28;20258;-80
2022/08/29 08:23:51;;;;;;;0.40;0.40;;;24.50;72.30;;;24.52;57.09;95310.22;4978829;28;20204;-81
2022/08/29 08:26:19;;;;;;;0.60;0.60;;;24.60;72.20;;;24.50;56.84;95301.66;5014130;28;20226;-81
2022/08/29 08:28:47;;;;;;;0.35;0.35;;;24.60;71.80;;;24.51;57.37;95302.44;5032370;28;20197;-80
2022/08/29 08:31:15;;;;;;;0.40;0.40;;;24.50;72.80;;;24.50;56.68;95309.69;5033501;28;20320;-80
2022/08/29 08:33:43;;;;;;;0.35;0.35;;;24.50;71.50;;;24.47;56.82;95307.56;5014568;28;20200;-81
2022/08/29 08:36:14;;;;;;;0.40;0.40;;;24.50;71.70;;;24.42;56.55;95318.28;4998504;28;20263;-81
2022/08/29 08:38:42;;;;;;;0.30;0.30;;;24.50;71.60;;;24.35;55.98;95309.72;5020078;28;20222;-81
2022/08/29 08:41:37;;;;;;;0.30;0.30;;;24.50;71.30;;;24.34;56.16;95316.16;5017829;28;20232;-81
2022/08/29 08:45:01;;;;;;;0.40;0.40;;;24.40;70.80;;;24.26;56.40;95318.28;5031988;28;20204;-81
2022/08/29 08:47:55;;;;;;;0.50;0.50;;;24.40;71.30;;;24.20;56.03;95318.56;5034420;28;20232;-81
2022/08/29 08:51:02;;;;;;;0.40;0.40;;;24.30;70.30;;;24.15;55.94;95319.38;5016796;28;20779;-81
2022/08/29 08:53:38;;;;;;;0.40;0.40;;;24.20;70.30;;;24.06;55.14;95312.94;5018803;28;20207;-81
2022/08/29 08:56:27;;;;;;;0.40;0.40;;;24.10;70.30;;;24.02;55.68;95320.69;5014416;28;20226;-81
2022/08/29 08:59:10;;;;;;;0.50;0.50;;;24.10;70.40;;;24.03;55.71;95319.63;5005838;28;20279;-80
2022/08/29 09:01:59;;;;;;;0.40;0.40;;;24.10;70.20;;;24.08;55.83;95329.53;5035184;28;20644;-81
2022/08/29 09:04:56;;;;;;;0.40;0.40;;;24.00;70.60;;;24.16;56.22;95323.66;5031770;28;20208;-81
2022/08/29 09:07:35;;;;;;;0.32;0.32;;;24.10;71.00;;;24.25;56.00;95322.03;5017576;28;20228;-81
2022/08/29 09:10:29;;;;;;;0.60;0.60;;;24.10;71.00;;;24.35;55.73;95323.94;5034823;28;20219;-81
2022/08/29 09:13:34;;;;;;;0.60;0.60;;;24.20;70.50;;;24.46;55.63;95325.53;5028853;28;20682;-81
2022/08/29 09:16:36;;;;;;;0.60;0.60;;;24.30;70.70;;;24.61;56.15;95324.69;5013804;28;20325;-81
2022/08/29 09:19:09;;;;;;;0.30;0.30;;;24.40;70.90;;;24.75;55.05;95327.63;4981855;28;20205;-80
2022/08/29 09:21:50;;;;;;;0.30;0.30;;;24.50;70.00;;;24.92;55.27;95326.53;4997803;28;20613;-81
2022/08/29 09:24:56;;;;;;;0.35;0.35;;;24.70;70.10;;;25.14;55.36;95322.72;5002709;28;20230;-80
2022/08/29 09:27:28;;;;;;;0.60;0.60;;;24.90;70.10;;;25.31;54.31;95320.50;5030133;28;20230;-81
2022/08/29 09:30:26;;;;;;;0.40;0.40;;;25.00;70.40;;;25.50;55.43;95331.44;5037060;28;20226;-80
2022/08/29 09:33:10;;;;;;;0.40;0.40;;;25.20;70.90;;;25.66;54.08;95331.34;5014537;28;20221;-80
2022/08/29 09:35:46;;;;;;;0.40;0.40;;;25.40;69.50;;;25.69;53.58;95330.81;5029429;28;20207;-80
2022/08/29 09:38:16;;;;;;;0.40;0.40;;;25.50;68.70;;;25.66;53.51;95324.09;5031263;28;20215;-81
2022/08/29 09:40:51;;;;;;;0.30;0.30;;;25.60;68.80;;;25.57;53.17;95323.06;5019631;28;20262;-80
2022/08/29 09:43:45;;;;;;;0.40;0.40;;;25.60;68.20;;;25.44;52.81;95321.81;5011056;28;20252;-81
2022/08/29 09:46:20;;;;;;;0.30;0.30;;;25.50;67.70;;;25.41;53.28;95323.16;4996359;28;20285;-81
2022/08/29 09:49:15;;;;;;;0.47;0.47;;;25.50;68.50;;;25.45;53.99;95322.59;4982803;28;20584;-80
2022/08/29 09:51:47;;;;;;;0.47;0.47;;;25.50;68.80;;;25.51;53.04;95316.94;5000261;28;20249;-81
2022/08/29 09:54:17;;;;;;;0.40;0.40;;;25.50;67.80;;;25.61;52.89;95318.78;5018701;28;20833;-81
2022/08/29 09:57:01;;;;;;;0.40;0.40;;;25.50;68.30;;;25.71;52.60;95318.69;5013565;28;20233;-81
2022/08/29 09:59:34;;;;;;;0.30;0.30;;;25.60;67.70;;;25.86;52.51;95322.38;5011958;28;20206;-81
2022/08/29 10:02:27;;;;;;;0.50;0.50;;;25.70;67.80;;;25.96;52.83;95318.81;5022040;28;20264;-81
2022/08/29 10:05:01;;;;;;;0.30;0.30;;;25.80;67.90;;;26.00;52.20;95317.16;5022956;28;20191;-81
2022/08/29 10:07:51;;;;;;;0.40;0.40;;;25.90;67.90;;;25.95;51.73;95311.81;4996508;28;20253;-81
2022/08/29 10:10:25;;;;;;;0.38;0.38;;;25.90;67.30;;;25.95;51.29;95317.19;4998310;28;20218;-81
2022/08/29 10:13:19;;;;;;;0.38;0.38;;;25.90;66.70;;;26.00;52.43;95319.84;5016319;28;20214;-81
2022/08/29 10:15:54;;;;;;;0.50;0.50;;;25.90;67.80;;;26.08;51.97;95327.34;5029762;28;20202;-81
2022/08/29 10:18:41;;;;;;;0.40;0.40;;;26.00;68.00;;;26.12;50.52;95323.03;5012307;28;20257;-81
2022/08/29 10:21:38;;;;;;;0.40;0.40;;;26.00;66.60;;;26.10;49.98;95319.81;5012019;28;20224;-81
2022/08/29 10:24:27;;;;;;;0.40;0.40;;;26.10;65.70;;;26.14;51.38;95309.31;5027894;28;20198;-82
2022/08/29 10:27:42;;;;;;;0.30;0.30;;;26.10;66.90;;;26.20;51.70;95308.97;5003893;28;20230;-80
2022/08/29 10:30:22;;;;;;;0.50;0.50;;;26.20;67.00;;;26.30;50.67;95305.38;4995871;28;20216;-81
2022/08/29 10:33:41;;;;;;;0.30;0.30;;;26.30;65.80;;;26.42;51.37;95302.34;5013002;28;20236;-81
2022/08/29 10:36:31;;;;;;;0.40;0.40;;;26.30;66.70;;;26.54;48.90;95307.34;5014789;28;20303;-81
2022/08/29 10:39:13;;;;;;;0.40;0.40;;;26.50;65.80;;;26.63;49.68;95305.63;5012394;28;20280;-82
2022/08/29 10:41:49;;;;;;;0.40;0.40;;;26.60;65.10;;;26.78;49.99;95302.03;5016249;28;20685;-79
2022/08/29 10:44:34;;;;;;;0.30;0.30;;;26.70;65.60;;;26.98;50.41;95297.50;4994455;28;20211;-81
2022/08/29 10:47:45;;;;;;;0.30;0.30;;;26.90;66.00;;;27.15;50.29;95303.19;5028956;28;20782;-81